Terminal Aerodrome Forecast
Issued by NWS

Home | Current Version | Previous Version | Text Only | Print | Product List | Glossary On
Versions: 1 2 3 4 5 6 7 8 9 10 11 12 13 14 15 16 17 18 19 20
381
FTUS46 KMFR 232339
TAFRBG
TAF
KRBG 232339Z 2400/2424 35003KT P6SM SKC
     FM240800 VRB02KT 5SM BR SCT004
     FM240900 VRB02KT 3SM BR BKN004
     FM241100 VRB02KT 1/2SM FG OVC002
     FM241600 VRB02KT 5SM BR OVC007
     FM242000 35003KT P6SM FEW012=

USA.gov is the U.S. government's official web portal to all federal, state and local government web resources and services.